createdAt,value
2017-10-29T00:01:02.635Z,7.44
2017-10-29T00:03:30.305Z,7.40
2017-10-29T00:05:57.918Z,7.42
2017-10-29T00:08:25.926Z,7.38
2017-10-29T00:10:53.694Z,7.33
2017-10-29T00:13:21.720Z,7.32
2017-10-29T00:15:49.698Z,7.29
2017-10-29T00:18:17.246Z,7.31
2017-10-29T00:20:44.862Z,7.28
2017-10-29T00:23:12.424Z,7.27
2017-10-29T00:25:39.994Z,7.28
2017-10-29T00:28:07.614Z,7.27
2017-10-29T00:30:35.192Z,7.26
2017-10-29T00:33:02.842Z,7.24
2017-10-29T00:35:30.415Z,7.25
2017-10-29T00:37:57.999Z,7.26
2017-10-29T00:40:26.382Z,7.23
2017-10-29T00:42:54.270Z,7.24
2017-10-29T00:45:21.844Z,7.21
2017-10-29T00:47:49.414Z,7.22
2017-10-29T00:50:16.991Z,7.24
2017-10-29T00:52:44.554Z,7.26
2017-10-29T00:55:12.145Z,7.24
2017-10-29T00:57:40.061Z,7.26
2017-10-29T01:00:07.641Z,7.24
2017-10-29T01:02:35.233Z,7.27
2017-10-29T01:05:02.785Z,7.30
2017-10-29T01:07:30.435Z,7.29
2017-10-29T01:09:58.058Z,7.30
2017-10-29T01:12:27.278Z,7.31
2017-10-29T01:14:54.865Z,7.29
2017-10-29T01:17:22.428Z,7.27
2017-10-29T01:19:50.131Z,7.29
2017-10-29T01:22:18.138Z,7.31
2017-10-29T01:24:47.206Z,7.32
2017-10-29T01:27:14.762Z,7.34
2017-10-29T01:29:42.344Z,7.36
2017-10-29T01:32:09.932Z,7.39
2017-10-29T01:34:37.671Z,7.39
2017-10-29T01:37:05.255Z,7.41
2017-10-29T01:39:33.169Z,7.42
2017-10-29T01:42:00.826Z,7.44
2017-10-29T01:44:28.385Z,7.45
2017-10-29T01:46:55.973Z,7.47
2017-10-29T01:49:23.527Z,7.48
2017-10-29T01:51:51.108Z,7.49
2017-10-29T01:54:18.661Z,7.49
2017-10-29T01:56:46.258Z,7.51
2017-10-29T01:59:13.832Z,7.52
2017-10-29T02:01:41.720Z,7.56
2017-10-29T02:04:09.279Z,7.59
2017-10-29T02:06:37.499Z,7.61
2017-10-29T02:09:05.105Z,7.61
2017-10-29T02:11:32.664Z,7.65
2017-10-29T02:14:00.265Z,7.66
2017-10-29T02:16:27.934Z,7.68
2017-10-29T02:18:55.517Z,7.67
2017-10-29T02:21:23.069Z,7.68
2017-10-29T02:23:51.095Z,7.66
2017-10-29T02:26:19.137Z,7.65
2017-10-29T02:28:46.712Z,7.69
2017-10-29T02:31:14.375Z,7.75
2017-10-29T02:33:41.941Z,7.81
2017-10-29T02:36:09.663Z,7.88
2017-10-29T02:38:37.782Z,7.93
2017-10-29T02:41:05.563Z,7.92
2017-10-29T02:43:33.637Z,7.98
2017-10-29T02:46:01.465Z,8.05
2017-10-29T02:48:29.021Z,8.04
2017-10-29T02:50:56.575Z,8.05
2017-10-29T02:53:24.219Z,8.06
2017-10-29T02:55:53.168Z,8.07
2017-10-29T02:58:20.739Z,8.08
2017-10-29T03:00:48.658Z,8.12
2017-10-29T03:03:16.561Z,8.16
2017-10-29T03:05:45.485Z,8.17
2017-10-29T03:08:13.213Z,8.26
2017-10-29T03:10:40.813Z,8.30
2017-10-29T03:13:08.435Z,8.29
2017-10-29T03:15:36.399Z,8.34
2017-10-29T03:18:03.969Z,8.36
2017-10-29T03:20:31.947Z,8.39
2017-10-29T03:22:59.537Z,8.45
2017-10-29T03:25:27.443Z,8.45
2017-10-29T03:27:55.033Z,8.47
2017-10-29T03:30:22.600Z,8.50
2017-10-29T03:32:50.163Z,8.52
2017-10-29T03:35:18.109Z,8.50
2017-10-29T03:37:45.977Z,8.52
2017-10-29T03:40:13.576Z,8.57
2017-10-29T03:42:41.130Z,8.60
2017-10-29T03:45:09.121Z,8.58
2017-10-29T03:47:36.674Z,8.63
2017-10-29T03:50:04.252Z,8.64
2017-10-29T03:52:31.818Z,8.68
2017-10-29T03:54:59.407Z,8.70
2017-10-29T03:57:27.027Z,8.72
2017-10-29T03:59:54.927Z,8.76
2017-10-29T04:02:23.771Z,8.75
2017-10-29T04:04:51.329Z,8.78
2017-10-29T04:07:19.229Z,8.80
2017-10-29T04:09:46.782Z,8.82
2017-10-29T04:12:14.343Z,8.85
2017-10-29T04:14:42.234Z,8.87
2017-10-29T04:17:09.819Z,8.91
2017-10-29T04:19:37.373Z,8.94
2017-10-29T04:22:07.239Z,8.96
2017-10-29T04:24:34.822Z,8.99
2017-10-29T04:27:02.381Z,9.09
2017-10-29T04:29:30.376Z,9.12
2017-10-29T04:31:57.948Z,9.11
2017-10-29T04:34:25.547Z,9.14
2017-10-29T04:36:53.543Z,9.19
2017-10-29T04:39:21.189Z,9.24
2017-10-29T04:41:48.785Z,9.36
2017-10-29T04:44:16.787Z,9.38
2017-10-29T04:46:44.813Z,9.41
2017-10-29T04:49:12.405Z,9.46
2017-10-29T04:51:40.351Z,9.52
2017-10-29T04:54:08.017Z,9.57
2017-10-29T04:56:35.971Z,9.59
2017-10-29T04:59:03.518Z,9.58
2017-10-29T05:01:31.423Z,9.69
2017-10-29T05:03:59.359Z,9.70
2017-10-29T05:06:26.924Z,9.76
2017-10-29T05:08:54.523Z,9.72
2017-10-29T05:11:22.074Z,9.73
2017-10-29T05:13:51.766Z,9.75
2017-10-29T05:16:19.337Z,9.75
2017-10-29T05:18:48.405Z,9.76
2017-10-29T05:21:15.995Z,9.76
2017-10-29T05:23:44.179Z,9.79
2017-10-29T05:26:12.072Z,9.83
2017-10-29T05:28:41.473Z,9.85
2017-10-29T05:31:09.045Z,9.83
2017-10-29T05:33:36.600Z,9.84
2017-10-29T05:36:04.193Z,9.84
2017-10-29T05:38:31.758Z,9.87
2017-10-29T05:40:59.354Z,9.85
2017-10-29T05:43:26.907Z,9.85
2017-10-29T05:45:54.474Z,9.87
2017-10-29T05:48:22.076Z,9.87
2017-10-29T05:50:51.466Z,9.84
2017-10-29T05:53:19.167Z,9.90
2017-10-29T05:55:46.738Z,9.96
2017-10-29T05:58:15.116Z,9.99
2017-10-29T06:00:42.757Z,9.97
2017-10-29T06:03:10.657Z,9.95
2017-10-29T06:05:38.260Z,9.94
2017-10-29T06:08:05.914Z,9.90
2017-10-29T06:10:33.512Z,9.90
2017-10-29T06:13:01.084Z,9.89
2017-10-29T06:15:28.696Z,9.88
2017-10-29T06:17:56.282Z,9.82
2017-10-29T06:20:23.874Z,9.88
2017-10-29T06:22:51.414Z,9.90
2017-10-29T06:25:19.012Z,9.88
2017-10-29T06:27:46.568Z,9.80
2017-10-29T06:30:14.125Z,9.71
2017-10-29T06:32:41.727Z,9.69
2017-10-29T06:35:09.303Z,9.66
2017-10-29T06:37:36.918Z,9.62
2017-10-29T06:40:04.485Z,9.53
2017-10-29T06:42:32.798Z,9.45
2017-10-29T06:45:00.366Z,9.39
2017-10-29T06:47:27.920Z,9.31
2017-10-29T06:49:55.524Z,9.26
2017-10-29T06:52:23.208Z,9.20
2017-10-29T06:54:50.832Z,9.16
2017-10-29T06:57:18.746Z,9.15
2017-10-29T06:59:46.386Z,9.12
2017-10-29T07:02:13.974Z,9.11
2017-10-29T07:04:41.572Z,9.10
2017-10-29T07:07:09.500Z,9.15
2017-10-29T07:09:37.053Z,9.15
2017-10-29T07:12:04.674Z,9.16
2017-10-29T07:14:33.018Z,9.20
2017-10-29T07:17:01.196Z,9.19
2017-10-29T07:19:28.759Z,9.22
2017-10-29T07:21:56.682Z,9.27
2017-10-29T07:24:24.285Z,9.31
2017-10-29T07:26:52.034Z,9.34
2017-10-29T07:29:19.638Z,9.38
2017-10-29T07:31:47.700Z,9.35
2017-10-29T07:34:15.696Z,9.37
2017-10-29T07:36:43.288Z,9.41
2017-10-29T07:39:10.913Z,9.43
2017-10-29T07:41:38.884Z,9.48
2017-10-29T07:44:06.846Z,9.51
2017-10-29T07:46:34.845Z,9.55
2017-10-29T07:49:02.460Z,9.55
2017-10-29T07:51:30.436Z,9.63
2017-10-29T07:53:57.991Z,9.67
2017-10-29T07:56:26.024Z,9.74
2017-10-29T07:58:53.601Z,9.77
2017-10-29T08:01:21.201Z,9.83
2017-10-29T08:03:49.212Z,9.86
2017-10-29T08:06:16.812Z,9.91
2017-10-29T08:08:44.408Z,9.95
2017-10-29T08:11:12.542Z,9.97
2017-10-29T08:13:40.133Z,9.99
2017-10-29T08:16:07.720Z,10.02
2017-10-29T08:18:35.315Z,10.05
2017-10-29T08:21:02.874Z,10.09
2017-10-29T08:23:30.476Z,10.09
2017-10-29T08:25:58.070Z,10.10
2017-10-29T08:28:25.999Z,10.09
2017-10-29T08:30:53.664Z,10.09
2017-10-29T08:33:21.377Z,10.07
2017-10-29T08:35:49.465Z,10.07
2017-10-29T08:38:17.041Z,10.05
2017-10-29T08:40:44.663Z,10.03
2017-10-29T08:43:12.883Z,10.02
2017-10-29T08:45:40.501Z,10.04
2017-10-29T08:48:08.094Z,10.05
2017-10-29T08:50:35.678Z,10.04
2017-10-29T08:53:03.320Z,10.05
2017-10-29T08:55:30.923Z,10.08
2017-10-29T08:57:58.595Z,10.11
2017-10-29T09:00:26.640Z,10.13
2017-10-29T09:02:54.341Z,10.10
2017-10-29T09:05:21.950Z,10.14
2017-10-29T09:07:49.529Z,10.12
2017-10-29T09:10:17.139Z,10.04
2017-10-29T09:12:44.745Z,10.05
2017-10-29T09:15:12.377Z,10.08
2017-10-29T09:17:40.405Z,10.04
2017-10-29T09:20:08.017Z,9.97
2017-10-29T09:22:35.605Z,9.99
2017-10-29T09:25:05.784Z,10.06
2017-10-29T09:27:33.910Z,10.12
2017-10-29T09:30:01.479Z,10.10
2017-10-29T09:32:29.061Z,10.11
2017-10-29T09:34:56.652Z,10.09
2017-10-29T09:37:24.290Z,10.15
2017-10-29T09:39:51.876Z,10.16
2017-10-29T09:42:19.768Z,10.21
2017-10-29T09:44:47.378Z,10.20
2017-10-29T09:47:14.996Z,10.23
2017-10-29T09:49:43.004Z,10.21
2017-10-29T09:52:10.744Z,10.17
2017-10-29T09:54:38.333Z,10.23
2017-10-29T09:57:06.019Z,10.24
2017-10-29T09:59:33.608Z,10.26
2017-10-29T10:02:01.199Z,10.26
2017-10-29T10:04:28.775Z,10.25
2017-10-29T10:06:56.846Z,10.26
2017-10-29T10:09:24.447Z,10.26
2017-10-29T10:11:52.028Z,10.23
2017-10-29T10:14:20.195Z,10.22
2017-10-29T10:16:47.971Z,9.92
2017-10-29T10:19:16.489Z,9.56
2017-10-29T10:21:44.048Z,9.32
2017-10-29T10:24:11.649Z,9.27
2017-10-29T10:26:39.237Z,9.33
2017-10-29T10:29:08.852Z,9.39
2017-10-29T10:31:36.505Z,9.42
2017-10-29T10:34:04.098Z,9.44
2017-10-29T10:36:31.750Z,9.50
2017-10-29T10:38:59.388Z,9.50
2017-10-29T10:41:27.011Z,9.50
2017-10-29T10:43:54.799Z,9.50
2017-10-29T10:46:23.148Z,9.55
2017-10-29T10:48:52.140Z,9.57
2017-10-29T10:51:19.761Z,9.56
2017-10-29T10:53:47.396Z,9.56
2017-10-29T10:56:15.159Z,9.50
2017-10-29T10:58:43.094Z,9.49
2017-10-29T11:01:11.155Z,9.47
2017-10-29T11:03:38.728Z,9.45
2017-10-29T11:06:06.432Z,9.46
2017-10-29T11:08:34.017Z,9.47
2017-10-29T11:11:02.421Z,9.53
2017-10-29T11:13:30.163Z,9.52
2017-10-29T11:15:58.131Z,9.58
2017-10-29T11:18:25.745Z,9.56
2017-10-29T11:20:53.772Z,9.63
2017-10-29T11:23:21.352Z,9.60
2017-10-29T11:25:49.113Z,9.69
2017-10-29T11:28:17.044Z,9.84
2017-10-29T11:30:44.665Z,9.88
2017-10-29T11:33:12.330Z,10.03
2017-10-29T11:35:40.325Z,10.14
2017-10-29T11:38:08.086Z,10.13
2017-10-29T11:40:35.916Z,10.08
2017-10-29T11:43:03.909Z,10.04
2017-10-29T11:45:31.537Z,9.97
2017-10-29T11:47:59.146Z,9.98
2017-10-29T11:50:27.146Z,9.91
2017-10-29T11:52:56.522Z,9.87
2017-10-29T11:55:24.198Z,9.88
2017-10-29T11:57:52.365Z,10.01
2017-10-29T12:00:19.984Z,10.11
2017-10-29T12:02:47.641Z,10.07
2017-10-29T12:05:15.653Z,10.14
2017-10-29T12:07:43.335Z,10.22
2017-10-29T12:10:10.960Z,10.25
2017-10-29T12:12:38.627Z,10.38
2017-10-29T12:15:08.370Z,10.38
2017-10-29T12:17:35.962Z,10.30
2017-10-29T12:20:03.608Z,10.23
2017-10-29T12:22:31.252Z,10.16
2017-10-29T12:24:58.885Z,10.22
2017-10-29T12:27:26.837Z,10.36
2017-10-29T12:29:54.559Z,10.42
2017-10-29T12:32:22.186Z,10.43
2017-10-29T12:34:50.507Z,10.40
2017-10-29T12:37:18.470Z,10.49
2017-10-29T12:39:46.221Z,10.66
2017-10-29T12:42:13.837Z,10.84
2017-10-29T12:44:42.216Z,11.04
2017-10-29T12:47:10.207Z,11.15
2017-10-29T12:49:37.835Z,11.34
2017-10-29T12:52:05.623Z,11.41
2017-10-29T12:54:33.297Z,11.41
2017-10-29T12:57:00.985Z,11.38
2017-10-29T12:59:28.651Z,11.24
2017-10-29T13:01:56.582Z,11.03
2017-10-29T13:04:24.232Z,10.87
2017-10-29T13:06:51.870Z,10.68
2017-10-29T13:09:19.526Z,10.53
2017-10-29T13:11:47.195Z,10.41
2017-10-29T13:14:17.691Z,10.36
2017-10-29T13:16:45.866Z,10.36
2017-10-29T13:19:14.242Z,10.32
2017-10-29T13:21:41.886Z,10.39
2017-10-29T13:24:09.489Z,10.55
2017-10-29T13:26:37.141Z,10.69
2017-10-29T13:29:04.840Z,10.79
2017-10-29T13:31:32.447Z,10.84
2017-10-29T13:34:00.193Z,10.91
2017-10-29T13:36:28.255Z,10.98
2017-10-29T13:38:55.864Z,11.12
2017-10-29T13:41:23.486Z,11.20
2017-10-29T13:43:51.092Z,11.28
2017-10-29T13:46:18.726Z,11.40
2017-10-29T13:48:46.358Z,11.48
2017-10-29T13:51:13.940Z,11.56
2017-10-29T13:53:41.564Z,11.59
2017-10-29T13:56:09.129Z,11.59
2017-10-29T13:58:36.789Z,11.58
2017-10-29T14:01:04.416Z,11.60
2017-10-29T14:03:32.088Z,11.43
2017-10-29T14:05:59.765Z,11.35
2017-10-29T14:08:27.382Z,11.27
2017-10-29T14:10:55.037Z,11.13
2017-10-29T14:13:22.667Z,11.08
2017-10-29T14:15:51.693Z,11.10
2017-10-29T14:18:21.063Z,11.08
2017-10-29T14:20:49.470Z,11.07
2017-10-29T14:23:17.139Z,11.04
2017-10-29T14:25:44.757Z,11.05
2017-10-29T14:28:12.464Z,11.03
2017-10-29T14:30:40.440Z,11.08
2017-10-29T14:33:08.190Z,11.04
2017-10-29T14:35:36.033Z,11.09
2017-10-29T14:38:03.750Z,11.11
2017-10-29T14:40:31.398Z,11.14
2017-10-29T14:42:59.150Z,11.13
2017-10-29T14:45:27.187Z,11.15
2017-10-29T14:47:54.827Z,11.28
2017-10-29T14:50:22.489Z,11.40
2017-10-29T14:52:50.666Z,11.55
2017-10-29T14:55:18.326Z,11.61
2017-10-29T14:57:45.968Z,11.36
2017-10-29T15:00:13.634Z,11.06
2017-10-29T15:02:41.744Z,11.06
2017-10-29T15:05:09.505Z,10.99
2017-10-29T15:07:37.306Z,10.82
2017-10-29T15:10:04.942Z,10.64
2017-10-29T15:12:32.634Z,10.59
2017-10-29T15:15:00.256Z,10.52
2017-10-29T15:17:27.952Z,10.49
2017-10-29T15:19:57.031Z,10.40
2017-10-29T15:22:25.109Z,10.25
2017-10-29T15:24:52.955Z,10.10
2017-10-29T15:27:21.181Z,10.01
2017-10-29T15:29:49.145Z,9.94
2017-10-29T15:32:16.832Z,9.87
2017-10-29T15:34:44.502Z,9.81
2017-10-29T15:37:12.305Z,9.71
2017-10-29T15:39:39.964Z,9.61
2017-10-29T15:42:07.725Z,9.57
2017-10-29T15:44:35.488Z,9.55
2017-10-29T15:47:04.109Z,9.48
2017-10-29T15:49:31.800Z,9.38
2017-10-29T15:52:01.857Z,9.25
2017-10-29T16:07:35.110Z,8.93
2017-10-29T16:10:03.322Z,8.91
2017-10-29T16:12:31.022Z,8.85
2017-10-29T16:15:00.788Z,8.83
2017-10-29T16:17:29.016Z,8.84
2017-10-29T16:19:56.813Z,8.80
2017-10-29T16:22:25.142Z,8.79
2017-10-29T16:24:52.835Z,8.75
2017-10-29T16:27:20.526Z,8.72
2017-10-29T16:29:48.482Z,8.69
2017-10-29T16:32:18.912Z,8.63
2017-10-29T16:34:46.634Z,8.57
2017-10-29T16:37:14.477Z,8.56
2017-10-29T16:39:42.294Z,8.56
2017-10-29T16:42:10.468Z,8.50
2017-10-29T16:44:38.334Z,8.47
2017-10-29T16:47:08.006Z,8.38
2017-10-29T16:49:36.194Z,8.35
2017-10-29T16:52:04.439Z,8.29
2017-10-29T16:54:32.610Z,8.29
2017-10-29T16:57:00.812Z,8.23
2017-10-29T16:59:28.664Z,8.19
2017-10-29T17:01:56.528Z,8.15
2017-10-29T17:04:25.564Z,8.13
2017-10-29T17:06:53.317Z,8.11
2017-10-29T17:09:21.260Z,8.10
2017-10-29T17:11:49.107Z,8.08
2017-10-29T17:14:18.238Z,8.08
2017-10-29T17:16:46.277Z,8.04
2017-10-29T17:19:14.041Z,8.00
2017-10-29T17:21:41.841Z,7.97
2017-10-29T17:24:09.564Z,7.95
2017-10-29T17:26:37.927Z,7.88
2017-10-29T17:29:05.663Z,7.83
2017-10-29T17:31:33.356Z,7.81
2017-10-29T17:34:01.436Z,7.73
2017-10-29T17:36:29.353Z,7.71
2017-10-29T17:38:57.106Z,7.71
2017-10-29T17:41:25.274Z,7.69
2017-10-29T17:43:53.152Z,7.64
2017-10-29T17:46:21.168Z,7.63
2017-10-29T17:48:49.378Z,7.59
2017-10-29T17:51:20.006Z,7.59
2017-10-29T17:53:47.874Z,7.57
2017-10-29T17:56:15.664Z,7.53
2017-10-29T17:58:43.559Z,7.51
2017-10-29T18:01:11.374Z,7.54
2017-10-29T18:03:39.069Z,7.50
2017-10-29T18:06:06.798Z,7.52
2017-10-29T18:08:34.608Z,7.47
2017-10-29T18:11:02.426Z,7.44
2017-10-29T18:13:30.218Z,7.40
2017-10-29T18:15:58.195Z,7.38
2017-10-29T18:18:26.160Z,7.38
2017-10-29T18:20:53.939Z,7.34
2017-10-29T18:23:21.903Z,7.32
2017-10-29T18:25:49.983Z,7.31
2017-10-29T18:28:17.777Z,7.28
2017-10-29T18:30:45.543Z,7.27
2017-10-29T18:33:13.352Z,7.25
2017-10-29T18:35:41.133Z,7.21
2017-10-29T18:38:08.982Z,7.18
2017-10-29T18:40:37.067Z,7.17
2017-10-29T18:43:04.920Z,7.17
2017-10-29T18:45:32.744Z,7.19
2017-10-29T18:48:00.755Z,7.19
2017-10-29T18:50:28.636Z,7.19
2017-10-29T18:52:56.865Z,7.14
2017-10-29T18:55:24.727Z,7.09
2017-10-29T18:57:52.633Z,7.07
2017-10-29T19:00:20.572Z,7.08
2017-10-29T19:02:48.486Z,7.10
2017-10-29T19:05:16.555Z,7.06
2017-10-29T19:07:44.524Z,7.04
2017-10-29T19:10:12.499Z,7.03
2017-10-29T19:12:40.352Z,7.00
2017-10-29T19:15:08.614Z,6.98
2017-10-29T19:17:37.439Z,6.97
2017-10-29T19:20:05.205Z,7.00
2017-10-29T19:22:36.229Z,7.01
2017-10-29T19:25:04.143Z,6.97
2017-10-29T19:27:31.950Z,6.98
2017-10-29T19:30:00.621Z,6.96
2017-10-29T19:32:29.843Z,6.94
2017-10-29T19:34:58.286Z,6.92
2017-10-29T19:37:27.050Z,6.91
2017-10-29T19:39:54.908Z,6.88
2017-10-29T19:42:24.019Z,6.84
2017-10-29T19:44:51.975Z,6.86
2017-10-29T19:47:19.878Z,6.84
2017-10-29T19:49:47.893Z,6.85
2017-10-29T19:52:15.878Z,6.81
2017-10-29T19:54:43.848Z,6.75
2017-10-29T19:57:11.760Z,6.73
2017-10-29T19:59:41.411Z,6.67
2017-10-29T20:02:09.310Z,6.68
2017-10-29T20:04:39.158Z,6.71
2017-10-29T20:07:07.977Z,6.72
2017-10-29T20:09:35.947Z,6.71
2017-10-29T20:12:04.415Z,6.68
2017-10-29T20:14:32.279Z,6.65
2017-10-29T20:17:00.232Z,6.62
2017-10-29T20:19:28.338Z,6.60
2017-10-29T20:21:56.301Z,6.58
2017-10-29T20:24:24.931Z,6.57
2017-10-29T20:26:52.890Z,6.57
2017-10-29T20:29:21.367Z,6.50
2017-10-29T20:31:50.436Z,6.48
2017-10-29T20:34:19.471Z,6.49
2017-10-29T20:36:50.352Z,6.51
2017-10-29T20:55:38.597Z,6.37
2017-10-29T20:58:06.592Z,6.33
2017-10-29T21:00:35.589Z,6.33
2017-10-29T21:03:04.397Z,6.34
2017-10-29T21:05:32.235Z,6.36
2017-10-29T21:08:00.076Z,6.38
2017-10-29T21:10:28.006Z,6.35
2017-10-29T21:12:55.840Z,6.33
2017-10-29T21:15:23.623Z,6.33
2017-10-29T21:17:51.586Z,6.34
2017-10-29T21:20:20.346Z,6.32
2017-10-29T21:22:48.224Z,6.29
2017-10-29T21:25:16.199Z,6.31
2017-10-29T21:27:43.903Z,6.31
2017-10-29T21:30:12.014Z,6.30
2017-10-29T21:32:39.809Z,6.30
2017-10-29T21:35:07.772Z,6.32
2017-10-29T21:37:35.544Z,6.31
2017-10-29T21:40:03.999Z,6.31
2017-10-29T21:42:31.965Z,6.32
2017-10-29T21:44:59.710Z,6.29
2017-10-29T21:47:27.586Z,6.28
2017-10-29T21:49:55.676Z,6.25
2017-10-29T21:52:23.410Z,6.22
2017-10-29T21:54:51.079Z,6.22
2017-10-29T21:57:18.803Z,6.19
2017-10-29T21:59:46.439Z,6.18
2017-10-29T22:02:14.135Z,6.18
2017-10-29T22:04:41.766Z,6.14
2017-10-29T22:07:09.379Z,6.11
2017-10-29T22:09:37.385Z,6.11
2017-10-29T22:12:05.050Z,6.06
2017-10-29T22:14:32.711Z,6.06
2017-10-29T22:17:00.320Z,6.06
2017-10-29T22:19:27.927Z,6.06
2017-10-29T22:21:55.728Z,6.04
2017-10-29T22:24:23.307Z,6.00
2017-10-29T22:26:50.882Z,5.95
2017-10-29T22:29:18.896Z,5.90
2017-10-29T22:31:46.544Z,5.85
2017-10-29T22:34:15.627Z,5.84
2017-10-29T22:36:43.208Z,5.80
2017-10-29T22:39:11.999Z,5.78
2017-10-29T22:41:39.584Z,5.79
2017-10-29T22:44:07.294Z,5.75
2017-10-29T22:46:34.919Z,5.74
2017-10-29T22:49:02.493Z,5.72
2017-10-29T22:51:30.845Z,5.72
2017-10-29T22:53:58.415Z,5.70
2017-10-29T22:56:26.002Z,5.69
2017-10-29T22:58:53.596Z,5.65
2017-10-29T23:01:21.188Z,5.64
2017-10-29T23:03:48.792Z,5.61
2017-10-29T23:06:28.295Z,5.58
2017-10-29T23:08:55.875Z,5.56
2017-10-29T23:11:23.460Z,5.53
2017-10-29T23:13:51.333Z,5.53
2017-10-29T23:16:18.915Z,5.47
2017-10-29T23:18:47.043Z,5.44
2017-10-29T23:21:14.641Z,5.40
2017-10-29T23:23:42.243Z,5.38
2017-10-29T23:26:11.774Z,5.36
2017-10-29T23:28:39.331Z,5.34
2017-10-29T23:31:06.906Z,5.32
2017-10-29T23:33:34.475Z,5.26
2017-10-29T23:36:02.460Z,5.25
2017-10-29T23:38:30.053Z,5.23
2017-10-29T23:40:57.629Z,5.25
2017-10-29T23:43:25.288Z,5.24
2017-10-29T23:45:52.871Z,5.19
2017-10-29T23:48:20.467Z,5.19
2017-10-29T23:50:48.041Z,5.17
2017-10-29T23:53:15.635Z,5.17
2017-10-29T23:55:43.211Z,5.17
2017-10-29T23:58:11.120Z,5.16
